createdAt,value
2019-02-10T00:03:04.159Z,0
2019-02-10T00:03:51.762Z,0
2019-02-10T00:06:24.430Z,0
2019-02-10T00:08:08.401Z,0
2019-02-10T00:08:48.546Z,0
2019-02-10T00:09:28.817Z,0
2019-02-10T00:10:09.193Z,0
2019-02-10T00:10:49.689Z,0
2019-02-10T00:11:30.039Z,0
2019-02-10T00:12:10.460Z,0
2019-02-10T00:12:53.195Z,0
2019-02-10T00:13:40.883Z,0
2019-02-10T00:14:21.244Z,0
2019-02-10T00:15:05.364Z,0
2019-02-10T00:15:51.439Z,0
2019-02-10T00:16:35.171Z,0
2019-02-10T00:17:15.554Z,0
2019-02-10T00:18:07.989Z,0
2019-02-10T00:23:43.262Z,0
2019-02-10T00:24:33.328Z,0
2019-02-10T00:28:34.637Z,0
2019-02-10T00:29:26.109Z,0
2019-02-10T00:39:35.334Z,0
2019-02-10T00:42:00.249Z,0
2019-02-10T00:42:50.323Z,0
2019-02-10T00:43:42.449Z,0
2019-02-10T00:44:34.941Z,0
2019-02-10T00:45:32.940Z,0
2019-02-10T00:54:52.729Z,0
2019-02-10T00:55:33.003Z,0
2019-02-10T00:59:40.506Z,0
2019-02-10T01:00:21.899Z,0
2019-02-10T01:01:04.229Z,0
2019-02-10T01:01:44.926Z,0
2019-02-10T01:02:26.373Z,0
2019-02-10T01:03:07.756Z,0
2019-02-10T01:03:48.481Z,0
2019-02-10T01:04:29.003Z,0
2019-02-10T01:05:10.514Z,0
2019-02-10T01:05:51.037Z,0
2019-02-10T01:06:31.453Z,0
2019-02-10T01:07:12.076Z,0
2019-02-10T01:09:54.676Z,0
2019-02-10T01:12:45.487Z,0
2019-02-10T01:13:30.198Z,0
2019-02-10T01:14:12.975Z,0
2019-02-10T01:16:39.510Z,0
2019-02-10T01:19:32.309Z,0
2019-02-10T01:21:39.604Z,0
2019-02-10T01:22:30.020Z,0
2019-02-10T01:23:22.678Z,0
2019-02-10T01:24:10.386Z,0
2019-02-10T01:26:14.975Z,0
2019-02-10T01:31:54.090Z,0
2019-02-10T01:32:48.787Z,0
2019-02-10T01:33:39.193Z,0
2019-02-10T01:34:29.863Z,0
2019-02-10T01:35:18.944Z,0
2019-02-10T01:40:06.913Z,0
2019-02-10T01:40:45.168Z,0
2019-02-10T01:41:25.756Z,0
2019-02-10T01:42:06.236Z,0
2019-02-10T01:42:46.648Z,0
2019-02-10T01:43:27.038Z,0
2019-02-10T01:44:07.799Z,0
2019-02-10T01:44:48.222Z,0
2019-02-10T01:45:28.616Z,0
2019-02-10T01:46:09.038Z,0
2019-02-10T01:46:49.419Z,0
2019-02-10T01:47:29.815Z,0
2019-02-10T01:48:10.758Z,0
2019-02-10T01:48:51.222Z,0
2019-02-10T01:49:31.601Z,0
2019-02-10T01:50:12.004Z,0
2019-02-10T01:50:52.851Z,0
2019-02-10T01:51:33.256Z,0
2019-02-10T01:52:13.629Z,0
2019-02-10T01:52:54.191Z,0
2019-02-10T01:53:34.642Z,0
2019-02-10T01:54:15.372Z,0
2019-02-10T01:54:58.527Z,0
2019-02-10T01:55:39.413Z,0
2019-02-10T01:56:21.366Z,0
2019-02-10T01:57:01.750Z,0
2019-02-10T01:57:42.731Z,0
2019-02-10T01:58:28.474Z,0
2019-02-10T01:59:09.871Z,0
2019-02-10T01:59:51.304Z,0
2019-02-10T02:00:33.430Z,0
2019-02-10T02:01:13.818Z,0
2019-02-10T02:01:54.622Z,0
2019-02-10T02:02:35.125Z,0
2019-02-10T02:03:15.432Z,0
2019-02-10T02:03:55.904Z,0
2019-02-10T02:04:37.165Z,0
2019-02-10T02:05:20.061Z,0
2019-02-10T02:06:03.910Z,0
2019-02-10T02:06:42.689Z,0
2019-02-10T02:07:23.605Z,0
2019-02-10T02:08:04.896Z,0
2019-02-10T02:08:48.836Z,0
2019-02-10T02:09:29.865Z,0
2019-02-10T02:10:10.381Z,0
2019-02-10T02:10:50.967Z,0
2019-02-10T02:11:32.130Z,0
2019-02-10T02:12:13.825Z,0
2019-02-10T02:12:54.861Z,0
2019-02-10T02:13:37.845Z,0
2019-02-10T02:14:19.474Z,0
2019-02-10T02:15:00.307Z,0
2019-02-10T02:15:41.791Z,0
2019-02-10T02:16:27.242Z,0
2019-02-10T02:17:08.043Z,0
2019-02-10T02:17:49.610Z,0
2019-02-10T02:20:00.016Z,0
2019-02-10T02:22:48.891Z,0
2019-02-10T02:23:39.309Z,0
2019-02-10T02:24:31.681Z,0
2019-02-10T02:25:27.645Z,0
2019-02-10T02:28:49.284Z,0
2019-02-10T02:30:16.337Z,0
2019-02-10T02:30:56.866Z,0
2019-02-10T02:31:40.018Z,0
2019-02-10T02:32:25.314Z,0
2019-02-10T02:33:05.670Z,0
2019-02-10T02:33:52.299Z,0
2019-02-10T02:34:33.421Z,0
2019-02-10T02:35:19.113Z,0
2019-02-10T02:36:00.080Z,0
2019-02-10T02:36:42.242Z,0
2019-02-10T02:37:24.184Z,0
2019-02-10T02:38:14.995Z,0
2019-02-10T02:38:55.416Z,0
2019-02-10T02:39:40.123Z,0
2019-02-10T02:40:20.959Z,0
2019-02-10T02:41:03.168Z,0
2019-02-10T02:41:45.750Z,0
2019-02-10T02:42:26.445Z,0
2019-02-10T02:43:07.883Z,0
2019-02-10T02:43:50.336Z,0
2019-02-10T02:44:32.750Z,0
2019-02-10T02:45:15.144Z,0
2019-02-10T02:45:55.802Z,0
2019-02-10T02:46:37.122Z,0
2019-02-10T02:47:17.738Z,0
2019-02-10T02:47:59.807Z,0
2019-02-10T02:48:40.447Z,0
2019-02-10T02:49:20.870Z,0
2019-02-10T02:50:03.065Z,0
2019-02-10T02:50:44.966Z,0
2019-02-10T03:01:45.671Z,0
2019-02-10T03:02:26.900Z,0
2019-02-10T03:03:10.803Z,0
2019-02-10T03:03:51.237Z,0
2019-02-10T03:04:36.588Z,0
2019-02-10T03:05:17.002Z,0
2019-02-10T03:05:59.830Z,0
2019-02-10T03:06:46.194Z,0
2019-02-10T03:07:26.574Z,0
2019-02-10T03:08:07.260Z,0
2019-02-10T03:08:47.401Z,0
2019-02-10T03:09:28.730Z,0
2019-02-10T03:10:09.473Z,0
2019-02-10T03:10:49.647Z,0
2019-02-10T03:11:29.995Z,0
2019-02-10T03:12:10.626Z,0
2019-02-10T03:12:54.629Z,0
2019-02-10T03:13:35.154Z,0
2019-02-10T03:14:16.749Z,0
2019-02-10T03:15:01.006Z,0
2019-02-10T03:15:43.110Z,0
2019-02-10T03:16:27.403Z,0
2019-02-10T03:17:08.208Z,0
2019-02-10T03:17:49.631Z,0
2019-02-10T03:18:32.056Z,0
2019-02-10T03:19:12.509Z,0
2019-02-10T03:19:56.082Z,0
2019-02-10T03:20:43.119Z,0
2019-02-10T03:21:27.496Z,0
2019-02-10T03:22:07.934Z,0
2019-02-10T03:22:52.582Z,0
2019-02-10T03:23:34.109Z,0
2019-02-10T03:24:14.804Z,0
2019-02-10T03:24:57.099Z,0
2019-02-10T03:25:37.467Z,0
2019-02-10T03:26:17.812Z,0
2019-02-10T03:26:59.954Z,0
2019-02-10T03:27:41.243Z,0
2019-02-10T03:32:57.765Z,0
2019-02-10T03:33:39.842Z,0
2019-02-10T03:34:20.363Z,0
2019-02-10T03:35:01.648Z,0
2019-02-10T03:35:42.030Z,0
2019-02-10T03:36:22.778Z,0
2019-02-10T03:37:03.645Z,0
2019-02-10T03:37:44.840Z,0
2019-02-10T03:38:25.650Z,0
2019-02-10T03:39:06.310Z,0
2019-02-10T03:39:47.336Z,0
2019-02-10T03:40:27.775Z,0
2019-02-10T03:41:08.371Z,0
2019-02-10T03:41:49.485Z,0
2019-02-10T03:42:29.973Z,0
2019-02-10T03:43:10.511Z,0
2019-02-10T03:43:51.217Z,0
2019-02-10T03:44:31.871Z,0
2019-02-10T03:45:13.169Z,0
2019-02-10T03:45:53.976Z,0
2019-02-10T03:46:35.097Z,0
2019-02-10T03:47:15.474Z,0
2019-02-10T03:47:57.387Z,0
2019-02-10T03:48:37.906Z,0
2019-02-10T03:49:18.491Z,0
2019-02-10T03:49:59.182Z,0
2019-02-10T03:50:40.072Z,0
2019-02-10T03:51:20.952Z,0
2019-02-10T03:52:02.146Z,0
2019-02-10T03:52:43.499Z,0
2019-02-10T03:53:24.465Z,0
2019-02-10T03:54:05.795Z,0
2019-02-10T03:54:47.165Z,0
2019-02-10T03:55:27.616Z,0
2019-02-10T03:56:08.099Z,0
2019-02-10T03:56:49.675Z,0
2019-02-10T03:57:31.063Z,0
2019-02-10T03:58:11.987Z,0
2019-02-10T03:58:52.121Z,0
2019-02-10T03:59:33.151Z,0
2019-02-10T04:00:14.519Z,0
2019-02-10T04:00:55.395Z,0
2019-02-10T04:01:35.700Z,0
2019-02-10T04:02:16.981Z,0
2019-02-10T04:02:58.344Z,0
2019-02-10T04:03:40.218Z,0
2019-02-10T04:04:21.328Z,0
2019-02-10T04:05:02.099Z,0
2019-02-10T04:05:42.465Z,0
2019-02-10T04:06:23.530Z,0
2019-02-10T04:07:05.349Z,0
2019-02-10T04:07:47.784Z,0
2019-02-10T04:08:28.990Z,0
2019-02-10T04:09:10.426Z,0
2019-02-10T04:09:51.016Z,0
2019-02-10T04:10:32.838Z,0
2019-02-10T04:11:14.963Z,0
2019-02-10T04:11:55.788Z,0
2019-02-10T04:12:36.300Z,0
2019-02-10T04:13:16.746Z,0
2019-02-10T04:13:57.607Z,0
2019-02-10T04:14:38.498Z,0
2019-02-10T04:15:19.965Z,0
2019-02-10T04:16:00.390Z,0
2019-02-10T04:16:41.040Z,0
2019-02-10T04:17:22.532Z,0
2019-02-10T04:18:03.691Z,0
2019-02-10T04:18:44.130Z,0
2019-02-10T04:19:25.651Z,0
2019-02-10T04:20:05.817Z,0
2019-02-10T04:20:46.431Z,0
2019-02-10T04:23:21.423Z,0
2019-02-10T04:24:11.895Z,0
2019-02-10T04:28:23.310Z,0
2019-02-10T05:09:43.768Z,0
2019-02-10T05:10:39.796Z,0
2019-02-10T05:14:59.565Z,0
2019-02-10T05:15:44.103Z,0
2019-02-10T05:18:08.943Z,0
2019-02-10T05:18:51.741Z,0
2019-02-10T05:19:34.537Z,0
2019-02-10T05:20:17.200Z,0
2019-02-10T05:21:03.129Z,0
2019-02-10T05:21:46.332Z,0
2019-02-10T05:22:26.975Z,0
2019-02-10T05:23:18.642Z,0
2019-02-10T05:24:03.342Z,0
2019-02-10T05:24:46.072Z,0
2019-02-10T05:25:26.452Z,0
2019-02-10T05:26:06.866Z,0
2019-02-10T05:27:06.740Z,0
2019-02-10T05:27:47.483Z,0
2019-02-10T05:28:27.975Z,0
2019-02-10T05:29:10.252Z,0
2019-02-10T05:29:50.651Z,0
2019-02-10T05:30:37.294Z,0
2019-02-10T05:31:17.740Z,0
2019-02-10T05:32:01.846Z,0
2019-02-10T05:32:46.961Z,0
2019-02-10T05:33:27.320Z,0
2019-02-10T05:34:07.904Z,0
2019-02-10T05:34:48.294Z,0
2019-02-10T05:35:28.676Z,0
2019-02-10T05:36:09.140Z,0
2019-02-10T05:36:49.611Z,0
2019-02-10T05:37:30.054Z,0
2019-02-10T05:38:10.476Z,0
2019-02-10T05:38:54.976Z,0
2019-02-10T05:39:36.400Z,0
2019-02-10T05:40:22.595Z,0
2019-02-10T05:41:03.028Z,0
2019-02-10T05:41:43.855Z,0
2019-02-10T05:42:26.268Z,0
2019-02-10T05:43:10.581Z,0
2019-02-10T05:43:51.426Z,0
2019-02-10T05:44:32.196Z,0
2019-02-10T05:45:17.335Z,0
2019-02-10T05:45:58.880Z,0
2019-02-10T05:46:39.371Z,0
2019-02-10T05:47:21.084Z,0
2019-02-10T05:48:03.748Z,0
2019-02-10T05:48:46.084Z,0
2019-02-10T05:49:26.522Z,0
2019-02-10T05:50:12.655Z,0
2019-02-10T05:50:55.050Z,0
2019-02-10T05:51:37.404Z,0
2019-02-10T05:52:20.626Z,0
2019-02-10T05:53:01.036Z,0
2019-02-10T05:53:42.350Z,0
2019-02-10T05:54:22.605Z,0
2019-02-10T05:55:03.340Z,0
2019-02-10T05:55:44.331Z,0
2019-02-10T05:56:28.633Z,0
2019-02-10T05:57:09.394Z,0
2019-02-10T05:57:49.786Z,0
2019-02-10T05:58:32.567Z,0
2019-02-10T05:59:14.551Z,0
2019-02-10T05:59:58.575Z,0
2019-02-10T06:00:40.537Z,0
2019-02-10T06:01:21.383Z,0
2019-02-10T06:02:01.596Z,0
2019-02-10T06:02:44.097Z,0
2019-02-10T06:03:24.508Z,0
2019-02-10T06:04:05.049Z,0
2019-02-10T06:04:47.257Z,0
2019-02-10T06:05:29.854Z,0
2019-02-10T06:06:29.043Z,0
2019-02-10T06:07:11.403Z,0
2019-02-10T06:07:57.551Z,0
2019-02-10T06:08:39.425Z,0
2019-02-10T06:09:20.552Z,0
2019-02-10T06:10:02.090Z,0
2019-02-10T06:10:44.224Z,0
2019-02-10T06:11:28.059Z,0
2019-02-10T06:12:12.123Z,0
2019-02-10T06:12:53.634Z,0
2019-02-10T06:13:34.344Z,0
2019-02-10T06:14:15.342Z,0
2019-02-10T06:14:56.882Z,0
2019-02-10T06:15:37.205Z,0
2019-02-10T06:16:21.675Z,0
2019-02-10T06:17:02.890Z,0
2019-02-10T06:17:42.821Z,0
2019-02-10T06:18:26.663Z,0
2019-02-10T06:19:08.213Z,0
2019-02-10T06:19:50.975Z,0
2019-02-10T06:20:31.799Z,0
2019-02-10T06:21:14.166Z,0
2019-02-10T06:21:56.557Z,0
2019-02-10T06:22:37.044Z,0
2019-02-10T06:23:17.419Z,0
2019-02-10T06:23:57.811Z,0
2019-02-10T06:24:41.200Z,0
2019-02-10T06:25:25.646Z,0
2019-02-10T06:26:06.629Z,0
2019-02-10T06:26:46.981Z,0
2019-02-10T06:27:29.189Z,0
2019-02-10T06:28:11.595Z,0
2019-02-10T06:28:51.924Z,0
2019-02-10T06:29:34.138Z,0
2019-02-10T06:30:16.327Z,0
2019-02-10T06:30:56.740Z,0
2019-02-10T06:31:37.110Z,0
2019-02-10T06:32:17.557Z,0
2019-02-10T06:32:57.868Z,0
2019-02-10T06:33:42.047Z,0
2019-02-10T06:34:23.898Z,0
2019-02-10T06:35:05.013Z,0
2019-02-10T06:35:47.461Z,0
2019-02-10T06:36:29.589Z,0
2019-02-10T06:37:11.655Z,0
2019-02-10T06:37:52.078Z,0
2019-02-10T06:38:35.295Z,0
2019-02-10T06:39:15.641Z,0
2019-02-10T06:39:57.052Z,0
2019-02-10T06:40:40.382Z,0
2019-02-10T06:41:20.712Z,0
2019-02-10T06:42:01.120Z,0
2019-02-10T06:42:42.858Z,0
2019-02-10T06:43:26.120Z,0
2019-02-10T06:44:10.085Z,0
2019-02-10T06:44:50.542Z,0
2019-02-10T06:45:33.126Z,0
2019-02-10T06:46:15.427Z,0
2019-02-10T06:46:55.949Z,0
2019-02-10T06:47:36.303Z,0
2019-02-10T06:48:18.695Z,0
2019-02-10T06:48:59.231Z,4
2019-02-10T06:49:39.670Z,4
2019-02-10T06:50:21.409Z,4
2019-02-10T06:51:03.349Z,4
2019-02-10T06:51:43.673Z,4
2019-02-10T06:52:24.234Z,4
2019-02-10T06:53:04.691Z,4
2019-02-10T06:53:48.961Z,4
2019-02-10T06:54:29.562Z,4
2019-02-10T06:55:15.779Z,4
2019-02-10T06:55:59.341Z,4
2019-02-10T06:56:41.303Z,4
2019-02-10T06:57:24.258Z,4
2019-02-10T06:58:04.645Z,4
2019-02-10T06:58:45.112Z,4
2019-02-10T06:59:25.555Z,4
2019-02-10T07:00:09.460Z,8
2019-02-10T07:00:49.864Z,8
2019-02-10T07:01:31.288Z,8
2019-02-10T07:02:11.860Z,8
2019-02-10T07:02:52.496Z,8
2019-02-10T07:03:36.852Z,8
2019-02-10T07:04:17.421Z,12
2019-02-10T07:07:34.690Z,8
2019-02-10T07:09:34.231Z,12
2019-02-10T07:10:18.029Z,12
2019-02-10T07:10:58.401Z,12
2019-02-10T07:11:42.402Z,12
2019-02-10T07:12:26.807Z,12
2019-02-10T07:13:10.088Z,16
2019-02-10T07:13:56.675Z,16
2019-02-10T07:14:39.258Z,16
2019-02-10T07:15:21.478Z,20
2019-02-10T07:16:03.146Z,20
2019-02-10T07:16:48.956Z,24
2019-02-10T07:17:29.649Z,28
2019-02-10T07:18:09.893Z,28
2019-02-10T07:18:53.005Z,32
2019-02-10T07:19:36.619Z,36
2019-02-10T07:20:17.888Z,36
2019-02-10T07:21:00.022Z,36
2019-02-10T07:21:44.909Z,40
2019-02-10T07:22:31.695Z,40
2019-02-10T07:23:31.729Z,36
2019-02-10T07:24:12.310Z,32
2019-02-10T07:24:55.723Z,32
2019-02-10T07:25:41.179Z,36
2019-02-10T07:26:23.209Z,32
2019-02-10T07:27:07.540Z,32
2019-02-10T07:27:49.858Z,36
2019-02-10T07:28:31.192Z,40
2019-02-10T07:29:12.700Z,36
2019-02-10T07:29:56.714Z,36
2019-02-10T07:30:44.721Z,36
2019-02-10T07:31:29.163Z,40
2019-02-10T07:32:13.954Z,40
2019-02-10T07:33:08.309Z,44
2019-02-10T07:33:48.940Z,48
2019-02-10T07:34:31.839Z,56
2019-02-10T07:35:12.352Z,60
2019-02-10T07:35:54.550Z,68
2019-02-10T07:36:38.710Z,76
2019-02-10T07:37:22.860Z,80
2019-02-10T07:38:07.085Z,72
2019-02-10T07:38:51.909Z,80
2019-02-10T07:39:36.780Z,80
2019-02-10T07:40:17.209Z,80
2019-02-10T07:41:05.333Z,80
2019-02-10T07:41:45.975Z,80
2019-02-10T07:42:35.050Z,84
2019-02-10T07:43:36.191Z,84
2019-02-10T07:50:38.666Z,124
2019-02-10T07:51:21.663Z,120
2019-02-10T07:52:06.793Z,116
2019-02-10T07:52:48.127Z,108
2019-02-10T07:53:29.167Z,104
2019-02-10T07:54:09.798Z,100
2019-02-10T07:54:50.195Z,92
2019-02-10T07:55:30.815Z,88
2019-02-10T07:56:11.511Z,88
2019-02-10T07:56:52.963Z,84
2019-02-10T07:57:36.035Z,80
2019-02-10T07:58:20.623Z,76
2019-02-10T07:59:01.118Z,80
2019-02-10T08:01:45.117Z,80
2019-02-10T08:02:29.389Z,80
2019-02-10T08:03:11.581Z,80
2019-02-10T08:04:00.513Z,84
2019-02-10T08:04:41.883Z,96
2019-02-10T08:05:25.274Z,100
2019-02-10T08:06:05.658Z,104
2019-02-10T08:06:51.877Z,100
2019-02-10T08:07:33.266Z,92
2019-02-10T08:08:18.982Z,84
2019-02-10T08:09:00.311Z,80
2019-02-10T08:09:42.721Z,76
2019-02-10T08:10:23.145Z,80
2019-02-10T08:11:07.540Z,84
2019-02-10T08:11:49.592Z,96
2019-02-10T08:14:30.747Z,92
2019-02-10T08:15:14.225Z,96
2019-02-10T08:15:58.258Z,104
2019-02-10T08:16:49.630Z,116
2019-02-10T08:17:32.840Z,124
2019-02-10T08:18:13.359Z,120
2019-02-10T08:18:54.633Z,112
2019-02-10T08:19:38.960Z,116
2019-02-10T08:20:21.058Z,128
2019-02-10T08:22:40.841Z,128
2019-02-10T08:23:30.060Z,124
2019-02-10T08:24:09.296Z,136
2019-02-10T08:24:51.584Z,152
2019-02-10T08:25:46.082Z,184
2019-02-10T08:26:26.689Z,204
2019-02-10T08:27:09.457Z,212
2019-02-10T08:27:51.392Z,208
2019-02-10T08:28:35.201Z,208
2019-02-10T08:29:16.147Z,196
2019-02-10T08:29:58.160Z,192
2019-02-10T08:30:39.151Z,196
2019-02-10T08:31:19.954Z,216
2019-02-10T08:32:00.833Z,248
2019-02-10T08:32:43.261Z,276
2019-02-10T08:33:25.618Z,296
2019-02-10T08:34:10.058Z,300
2019-02-10T08:34:52.197Z,248
2019-02-10T08:35:33.247Z,220
2019-02-10T08:36:13.854Z,208
2019-02-10T08:36:54.257Z,196
2019-02-10T08:37:36.777Z,176
2019-02-10T08:38:18.596Z,156
2019-02-10T08:39:00.277Z,152
2019-02-10T08:39:41.201Z,164
2019-02-10T08:40:22.187Z,168
2019-02-10T08:41:02.864Z,168
2019-02-10T08:41:43.296Z,172
2019-02-10T08:42:23.864Z,160
2019-02-10T08:43:04.510Z,160
2019-02-10T08:43:45.254Z,156
2019-02-10T08:44:26.596Z,152
2019-02-10T08:45:07.193Z,148
2019-02-10T08:45:48.094Z,148
2019-02-10T08:46:31.208Z,148
2019-02-10T08:47:12.309Z,148
2019-02-10T08:47:53.205Z,140
2019-02-10T08:48:33.683Z,136
2019-02-10T08:49:19.431Z,132
2019-02-10T08:49:59.464Z,132
2019-02-10T08:50:40.315Z,132
2019-02-10T09:01:36.543Z,108
2019-02-10T09:04:12.697Z,104
2019-02-10T09:04:55.597Z,112
2019-02-10T09:05:39.689Z,116
2019-02-10T09:06:21.128Z,124
2019-02-10T09:07:03.389Z,132
2019-02-10T09:07:48.029Z,136
2019-02-10T09:08:31.144Z,144
2019-02-10T09:09:15.090Z,152
2019-02-10T09:09:57.426Z,164
2019-02-10T09:10:38.793Z,168
2019-02-10T09:11:19.284Z,176
2019-02-10T09:12:01.430Z,180
2019-02-10T09:12:44.823Z,188
2019-02-10T09:13:27.124Z,200
2019-02-10T09:14:09.370Z,216
2019-02-10T09:14:49.838Z,224
2019-02-10T09:15:30.856Z,236
2019-02-10T09:16:15.847Z,248
2019-02-10T09:16:57.963Z,244
2019-02-10T09:17:40.022Z,240
2019-02-10T09:18:24.078Z,248
2019-02-10T09:19:04.463Z,240
2019-02-10T09:19:46.723Z,228
2019-02-10T09:20:30.539Z,224
2019-02-10T09:21:14.791Z,224
2019-02-10T09:21:59.602Z,228
2019-02-10T09:22:42.165Z,224
2019-02-10T09:23:22.702Z,216
2019-02-10T09:24:06.578Z,216
2019-02-10T09:24:49.159Z,212
2019-02-10T09:25:29.855Z,208
2019-02-10T09:26:13.717Z,204
2019-02-10T09:26:56.056Z,196
2019-02-10T09:27:38.430Z,188
2019-02-10T09:28:20.808Z,184
2019-02-10T09:29:02.889Z,180
2019-02-10T09:29:46.408Z,176
2019-02-10T09:30:27.364Z,184
2019-02-10T09:31:11.642Z,188
2019-02-10T09:37:09.207Z,196
2019-02-10T09:43:27.528Z,200
2019-02-10T09:44:10.014Z,212
2019-02-10T09:44:51.454Z,216
2019-02-10T09:45:32.003Z,224
2019-02-10T09:46:12.439Z,228
2019-02-10T09:46:53.916Z,228
2019-02-10T09:47:36.116Z,236
2019-02-10T09:48:18.285Z,240
2019-02-10T09:49:00.998Z,248
2019-02-10T09:49:45.013Z,256
2019-02-10T09:50:27.142Z,264
2019-02-10T09:51:09.540Z,268
2019-02-10T09:51:51.952Z,276
2019-02-10T09:52:32.514Z,264
2019-02-10T09:53:12.954Z,268
2019-02-10T09:53:55.305Z,272
2019-02-10T09:54:37.004Z,280
2019-02-10T09:55:19.509Z,276
2019-02-10T09:55:59.965Z,276
2019-02-10T09:56:40.411Z,272
2019-02-10T09:57:26.558Z,268
2019-02-10T09:58:11.224Z,260
2019-02-10T09:58:54.609Z,256
2019-02-10T09:59:34.920Z,256
2019-02-10T10:00:17.187Z,252
2019-02-10T10:00:59.120Z,256
2019-02-10T10:01:40.377Z,256
2019-02-10T10:02:20.819Z,260
2019-02-10T10:03:03.029Z,276
2019-02-10T10:03:44.215Z,288
2019-02-10T10:04:24.700Z,292
2019-02-10T10:05:08.980Z,308
2019-02-10T10:05:51.075Z,320
2019-02-10T10:06:31.693Z,328
2019-02-10T10:07:13.838Z,324
2019-02-10T10:07:57.236Z,340
2019-02-10T10:08:40.368Z,340
2019-02-10T10:09:22.527Z,348
2019-02-10T10:10:07.717Z,344
2019-02-10T10:10:49.892Z,336
2019-02-10T10:11:32.317Z,320
2019-02-10T10:12:12.987Z,308
2019-02-10T10:12:55.402Z,304
2019-02-10T10:13:36.544Z,316
2019-02-10T10:14:19.765Z,324
2019-02-10T10:15:02.669Z,328
2019-02-10T10:15:43.126Z,352
2019-02-10T10:16:23.599Z,392
2019-02-10T10:17:06.007Z,436
2019-02-10T10:17:47.489Z,460
2019-02-10T10:18:32.326Z,464
2019-02-10T10:19:12.820Z,460
2019-02-10T10:21:58.521Z,488
2019-02-10T10:22:41.664Z,508
2019-02-10T10:23:22.840Z,504
2019-02-10T10:24:04.867Z,448
2019-02-10T10:24:50.448Z,412
2019-02-10T10:25:29.195Z,424
2019-02-10T10:26:09.713Z,432
2019-02-10T10:26:50.158Z,420
2019-02-10T10:27:31.540Z,444
2019-02-10T10:28:12.195Z,456
2019-02-10T10:28:55.652Z,484
2019-02-10T11:11:44.676Z,472
2019-02-10T11:12:26.732Z,500
2019-02-10T11:13:08.712Z,508
2019-02-10T11:13:51.173Z,520
2019-02-10T11:14:31.635Z,520
2019-02-10T11:15:15.840Z,508
2019-02-10T11:15:57.365Z,512
2019-02-10T11:16:42.708Z,492
2019-02-10T11:17:26.870Z,480
2019-02-10T11:18:10.050Z,484
2019-02-10T11:18:54.425Z,468
2019-02-10T11:19:34.927Z,448
2019-02-10T11:20:15.415Z,444
2019-02-10T11:20:55.836Z,456
2019-02-10T11:21:36.383Z,476
2019-02-10T11:22:16.757Z,476
2019-02-10T11:22:57.328Z,480
2019-02-10T11:23:39.765Z,488
2019-02-10T11:24:20.127Z,500
2019-02-10T11:25:01.082Z,516
2019-02-10T11:25:41.406Z,508
2019-02-10T11:26:23.640Z,500
2019-02-10T11:27:04.057Z,488
2019-02-10T11:27:44.431Z,484
2019-02-10T11:28:24.755Z,468
2019-02-10T11:29:08.776Z,464
2019-02-10T11:29:49.216Z,432
2019-02-10T11:30:33.204Z,440
2019-02-10T11:31:13.626Z,444
2019-02-10T11:31:55.033Z,432
2019-02-10T11:32:35.470Z,424
2019-02-10T11:33:18.865Z,416
2019-02-10T11:34:00.828Z,412
2019-02-10T11:34:46.016Z,412
2019-02-10T11:35:23.563Z,408
2019-02-10T11:36:05.812Z,420
2019-02-10T11:36:46.308Z,420
2019-02-10T11:37:27.116Z,424
2019-02-10T11:38:07.102Z,440
2019-02-10T11:38:57.169Z,448
2019-02-10T11:39:43.514Z,440
2019-02-10T11:40:19.213Z,428
2019-02-10T11:40:59.680Z,432
2019-02-10T11:41:40.087Z,432
2019-02-10T11:42:20.499Z,440
2019-02-10T11:43:03.788Z,444
2019-02-10T11:43:44.362Z,456
2019-02-10T11:44:24.853Z,460
2019-02-10T11:45:05.502Z,472
2019-02-10T11:45:45.958Z,484
2019-02-10T11:46:28.076Z,520
2019-02-10T11:47:08.587Z,572
2019-02-10T11:47:53.601Z,624
2019-02-10T11:48:33.713Z,608
2019-02-10T11:49:14.410Z,568
2019-02-10T11:49:54.935Z,516
2019-02-10T11:50:36.136Z,484
2019-02-10T11:51:16.649Z,468
2019-02-10T11:51:57.951Z,468
2019-02-10T11:52:38.476Z,452
2019-02-10T11:53:19.197Z,444
2019-02-10T11:54:00.717Z,440
2019-02-10T11:54:41.093Z,460
2019-02-10T11:55:21.594Z,412
2019-02-10T11:56:01.899Z,368
2019-02-10T11:56:43.238Z,368
2019-02-10T11:57:23.885Z,392
2019-02-10T11:58:04.310Z,432
2019-02-10T11:58:44.660Z,448
2019-02-10T11:59:25.210Z,420
2019-02-10T12:00:06.989Z,412
2019-02-10T12:00:49.411Z,444
2019-02-10T12:01:29.872Z,596
2019-02-10T12:03:59.710Z,676
2019-02-10T12:04:41.137Z,640
2019-02-10T12:05:21.623Z,616
2019-02-10T12:06:02.314Z,596
2019-02-10T12:06:44.313Z,552
2019-02-10T12:07:24.736Z,540
2019-02-10T12:08:05.016Z,552
2019-02-10T12:08:46.430Z,532
2019-02-10T12:09:27.802Z,512
2019-02-10T12:10:08.161Z,532
2019-02-10T12:10:48.641Z,548
2019-02-10T12:11:30.969Z,572
2019-02-10T12:12:11.325Z,588
2019-02-10T12:12:51.928Z,592
2019-02-10T12:13:34.325Z,600
2019-02-10T12:14:16.432Z,596
2019-02-10T12:15:00.451Z,552
2019-02-10T12:15:45.062Z,480
2019-02-10T12:16:29.752Z,444
2019-02-10T12:17:10.666Z,440
2019-02-10T12:21:00.045Z,388
2019-02-10T12:21:41.508Z,400
2019-02-10T12:22:22.787Z,416
2019-02-10T12:23:03.334Z,408
2019-02-10T12:23:43.694Z,416
2019-02-10T12:24:25.994Z,420
2019-02-10T12:25:06.421Z,420
2019-02-10T12:25:46.920Z,416
2019-02-10T12:26:31.817Z,412
2019-02-10T12:27:16.086Z,372
2019-02-10T12:27:58.078Z,356
2019-02-10T12:28:39.418Z,364
2019-02-10T12:29:19.798Z,372
2019-02-10T12:30:03.117Z,360
2019-02-10T12:30:47.262Z,344
2019-02-10T12:31:27.668Z,352
2019-02-10T12:32:10.929Z,348
2019-02-10T12:32:51.370Z,328
2019-02-10T12:33:35.442Z,360
2019-02-10T12:34:15.924Z,376
2019-02-10T12:34:56.338Z,368
2019-02-10T12:35:37.096Z,388
2019-02-10T12:36:19.339Z,384
2019-02-10T12:37:05.012Z,380
2019-02-10T12:37:45.718Z,344
2019-02-10T12:38:27.922Z,332
2019-02-10T12:39:10.282Z,296
2019-02-10T12:39:59.577Z,292
2019-02-10T12:40:38.262Z,368
2019-02-10T12:41:19.879Z,408
2019-02-10T12:42:00.017Z,412
2019-02-10T12:42:44.258Z,472
2019-02-10T12:43:24.666Z,504
2019-02-10T12:44:06.388Z,532
2019-02-10T12:44:46.408Z,564
2019-02-10T12:45:30.320Z,592
2019-02-10T12:46:12.203Z,616
2019-02-10T12:48:12.019Z,720
2019-02-10T12:48:54.217Z,624
2019-02-10T12:49:38.152Z,556
2019-02-10T12:50:18.610Z,500
2019-02-10T12:50:59.119Z,456
2019-02-10T12:51:40.964Z,472
2019-02-10T12:52:21.333Z,512
2019-02-10T12:56:15.355Z,712
2019-02-10T12:56:57.338Z,704
2019-02-10T12:57:39.203Z,740
2019-02-10T12:58:19.648Z,752
2019-02-10T12:59:01.062Z,820
2019-02-10T12:59:41.389Z,944
2019-02-10T13:00:21.822Z,896
2019-02-10T13:01:02.275Z,900
2019-02-10T13:01:42.571Z,908
2019-02-10T13:02:23.241Z,872
2019-02-10T13:03:04.035Z,956
2019-02-10T13:03:46.162Z,1148
2019-02-10T13:04:28.462Z,1308
2019-02-10T13:05:08.775Z,1420
2019-02-10T13:05:50.856Z,1292
2019-02-10T13:06:32.901Z,1096
2019-02-10T13:07:13.493Z,1076
2019-02-10T13:07:53.684Z,1148
2019-02-10T13:08:34.086Z,1204
2019-02-10T13:09:14.741Z,1124
2019-02-10T13:10:11.939Z,1060
2019-02-10T13:10:54.299Z,1036
2019-02-10T13:11:39.705Z,992
2019-02-10T13:12:21.070Z,948
2019-02-10T13:13:01.406Z,756
2019-02-10T13:13:41.804Z,612
2019-02-10T13:14:22.220Z,560
2019-02-10T13:16:59.974Z,444
2019-02-10T13:17:42.295Z,600
2019-02-10T13:18:22.754Z,636
2019-02-10T13:19:06.088Z,760
2019-02-10T13:19:46.511Z,824
2019-02-10T13:20:27.505Z,820
2019-02-10T13:21:07.831Z,884
2019-02-10T13:22:02.920Z,1016
2019-02-10T13:22:45.440Z,1084
2019-02-10T13:23:31.261Z,1024
2019-02-10T13:25:31.530Z,872
2019-02-10T13:26:12.068Z,752
2019-02-10T13:26:53.951Z,652
2019-02-10T13:27:36.565Z,556
2019-02-10T13:28:17.489Z,524
2019-02-10T13:28:57.866Z,468
2019-02-10T13:29:38.403Z,504
2019-02-10T13:30:18.838Z,544
2019-02-10T13:31:01.195Z,432
2019-02-10T13:31:42.340Z,392
2019-02-10T13:32:22.685Z,372
2019-02-10T13:33:03.463Z,388
2019-02-10T13:33:45.736Z,532
2019-02-10T13:34:26.347Z,652
2019-02-10T13:35:08.099Z,748
2019-02-10T13:35:48.295Z,908
2019-02-10T13:36:28.685Z,1012
2019-02-10T13:37:10.951Z,1004
2019-02-10T13:37:51.365Z,932
2019-02-10T13:38:34.962Z,900
2019-02-10T13:39:16.154Z,848
2019-02-10T13:39:56.652Z,812
2019-02-10T13:40:36.984Z,752
2019-02-10T13:41:22.783Z,668
2019-02-10T13:42:08.110Z,544
2019-02-10T13:42:48.454Z,448
2019-02-10T13:43:40.635Z,424
2019-02-10T13:44:24.855Z,484
2019-02-10T13:45:05.251Z,564
2019-02-10T13:45:49.174Z,632
2019-02-10T13:46:38.137Z,668
2019-02-10T13:47:18.561Z,632
2019-02-10T13:48:01.404Z,552
2019-02-10T13:48:41.790Z,428
2019-02-10T13:49:22.185Z,424